Airfield :
LOGIN :

Register | Disclaimer

   EN    FR    IT 

 










Legend :    VFR   Marginal VFR   IFR   Intensive IFR   Very Intensive IFR
Visi :
Ceiling :
>= 8 km
>= 3000ft
5 to 8 km
1000 to 3000 ft
1500m to 5 km
500 to 1000 ft
800 to 1500m
200 to 500 ft
< 800m
< 200 ft
Symbols :   Thunderstorms  Fog  Heavy snow  Heavy precipitations  Wind > 20 kt
SIGMETs :     Misc.  Thunderstorms  Icing  Turbulence  Mountain Waves  Volcanic Ashes






- Airport Elevation : 3006 ft
- IATA code : LEN


LELN - Leon

CURRENT METAR :
  • 260100Z AUTO 02004KT 360V060 CAVOK 11/03 Q1029

EXPIRED METARs :
  • 260030Z AUTO 35005KT 330V030 CAVOK 12/03 Q1029
  • 260000Z AUTO 36006KT 330V040 CAVOK 12/04 Q1029
  • 252330Z AUTO 35005KT 320V020 CAVOK 12/05 Q1029
  • 252300Z AUTO 35005KT 310V020 CAVOK 12/06 Q1029
  • 252230Z AUTO 01005KT CAVOK 14/06 Q1029

TAF TAF LELN
Valid from the 25 at 18:00 until the 26 at 03:00 UTC


251700Z 2518/2603 02007KT CAVOK



MET'MAP, your aeronautical weather chart ! - Copyright ORBIFLY December 2007 - Disclaimer

ORBIFLY MET'MAP TEAM :

Programming & Development : Alexandra Zaïnal
Concept & original design : Baudouin d'Aumeries
Assistance for programming : Marc-Olivier Méhu
Technical & hardware support : Manuel Goepfert

Contact : metmap@orbifly.com




SOURCES & CREDITS :

   NOAA